METAR Data
IDs: Format: Raw Decoded Include TAF

Data at: 1212 UTC 24 May 2022

KJCT 241151Z AUTO 14004KT 10SM OVC019 21/18 A2977 RMK AO2 SLP046 T02110183 10222 20194 55011 $